Chéraga Airport

DAAX · Tipaza, 阿尔及利亚

罗盘
风向 的 风向 的 风向 到 风向 020°
风: 6 kt, 2 beaufort

添加一条跑道以查看侧风和逆风信息。

添置 跑道
0 ft 1.000 2.000 3.000 4.000 5.000
Cloud Cloud
FEW 2.300
METAR DAAG 011230Z 02006KT 330V070 9999 FEW023 14/06 Q1028

METAR Chéraga Airport - DAAX

Chéraga Airport是,阿尔及利亚中的小机场。 视场标高为396 ft。 该领域的国际民航组织标志是DAAX.

这份报告是针对2023年2月1日 13:30, 当地时间在阿尔及尔胡阿里·布迈丁机场进行的。

机场观察

风向为020°,速度为6 kt。 风向在330°和070°之间变化。

可见度为10 km 或者更多。

有几云在2.300 ft的高度。 没有观察到天花板。

温度和风寒是14 °C。 露点为6 °C,相对湿度为59%。 海平面上的气压为1028 hPa (QNH)。

白天

今天,太阳从07:50升起,在18:13降落。 这适用于Chéraga Airport,世界夏令时可能有所不同。 当地时间与世界标准时间之间的时差为+1 小时。 当前,没有夏令时有效。

公司介绍

我们没有关于这个机场的公司信息。

体会

到Vliegles.nl去找飞行课程,跳伞和其他飞行体验。 浏览页面,了解Chéraga Airport附近所有可用的活动。 你也可以使用搜索功能来寻找你所在地附近的特定飞行课程、跳伞或其他飞行体验。

乌云

2.300 ft FEW 几云

温度 & 天气

温度 14 °C
露点 6 °C
相对湿度 59%
Kp-index 0 (0-9)

白天

日出
07:49
中午
13:00
日落
18:12 (4:24)

小工具

你想在你的网站上有一个关于Chéraga Airport的当前航空天气(METAR)的小部件吗?

显示HTML代码

我们和第三方通过cookies跟踪您在我们网站上的互联网行为。如果你继续,我们认为你同意我们的饼干政策